Palmdale Regional/USAF Plant 42 Airport
KPMD : now visible

Airfield :











YOU CAN JOIN US ON...

 
LOGIN :

Register | Disclaimer

   EN    FR    IT 

 









Legend :    VFR   Marginal VFR   IFR   Intensive IFR   Very Intensive IFR
Visi :
Ceiling :
>= 8 km
>= 3000ft
5 to 8 km
1000 to 3000 ft
1500m to 5 km
500 to 1000 ft
800 to 1500m
200 to 500 ft
< 800m
< 200 ft
Symbols :   Thunderstorms  Fog  Heavy snow  Heavy precipitations  Wind > 20 kt






- Airport Elevation : 2543 ft
- IATA code : PMD


KPMD - Palmdale Regional/USAF Plant 42

CURRENT METAR :
  • 030053Z 29022G28KT 10SM CLR 16/M07 A2993 RMK AO2 PK WND 28031/0016 SLP127 T01561067

TAF KPMD
Valid from the 03 at 00:00 until the 04 at 00:00 UTC


022348Z 0300/0324 28014G22KT P6SM SKC
FM030300 27015KT P6SM SKC
FM031500 24008KT P6SM SKC
FM031600 29012KT P6SM SKC



MET'MAP, your aeronautical weather chart ! - Copyright ORBIFLY December 2007 - Disclaimer

ORBIFLY MET'MAP TEAM :

Programming & Development : Alexandra Zaïnal
Concept & original design : Baudouin d'Aumeries
Assistance for programming : Marc-Olivier Méhu
Technical & hardware support : Manuel Goepfert

Contact : metmap@orbifly.com




SOURCES & CREDITS :

   NOAA       Earth
Advisory